<?xml version='1.0' encoding='UTF-8'?><gpx version="1.1" creator="JPX - https://github.com/jenetics/jpx" xmlns="http://www.topografix.com/GPX/1/1"><trk><trkseg><trkpt lat="42.80380506415342" lon="12.567687844625054"><ele>1041.0</ele><time>2026-04-25T09:47:29Z</time></trkpt><trkpt lat="42.8038681067183" lon="12.56767017504738"><ele>1041.0</ele><time>2026-04-25T09:47:36Z</time></trkpt><trkpt lat="42.80393514960921" lon="12.56763939946024"><ele>1041.0</ele><time>2026-04-25T09:47:44Z</time></trkpt><trkpt lat="42.8039942632814" lon="12.567599808412421"><ele>1041.0</ele><time>2026-04-25T09:47:51Z</time></trkpt><trkpt lat="42.80405656885471" lon="12.567560976615798"><ele>1041.0</ele><time>2026-04-25T09:47:58Z</time></trkpt><trkpt lat="42.80411620616877" lon="12.567513965939597"><ele>1041.0</ele><time>2026-04-25T09:48:05Z</time></trkpt><trkpt lat="42.80417401746829" lon="12.567469817698381"><ele>1041.0</ele><time>2026-04-25T09:48:13Z</time></trkpt><trkpt lat="42.80422613968749" lon="12.567416829167804"><ele>1041.0</ele><time>2026-04-25T09:48:20Z</time></trkpt><trkpt lat="42.80427745902023" lon="12.567357763858618"><ele>1041.0</ele><time>2026-04-25T09:48:29Z</time></trkpt><trkpt lat="42.80433509290865" lon="12.56731405695197"><ele>1041.0</ele><time>2026-04-25T09:48:36Z</time></trkpt><trkpt lat="42.80438119600261" lon="12.567250986295484"><ele>1041.0</ele><time>2026-04-25T09:48:44Z</time></trkpt><trkpt lat="42.804445856335164" lon="12.567189785553"><ele>1041.0</ele><time>2026-04-25T09:48:52Z</time></trkpt><trkpt lat="42.80450237837497" lon="12.567147049296342"><ele>1041.0</ele><time>2026-04-25T09:48:59Z</time></trkpt><trkpt lat="42.80456590015248" lon="12.56710588415404"><ele>1041.0</ele><time>2026-04-25T09:49:06Z</time></trkpt><trkpt lat="42.804630605312695" lon="12.567095315788665"><ele>1040.5714285714287</ele><time>2026-04-25T09:49:23Z</time></trkpt><trkpt lat="42.80466060597528" lon="12.567173641713913"><ele>1040.1428571428573</ele><time>2026-04-25T09:49:30Z</time></trkpt><trkpt lat="42.804698589908206" lon="12.567255761179956"><ele>1039.7142857142858</ele><time>2026-04-25T09:49:45Z</time></trkpt><trkpt lat="42.80474061247544" lon="12.567331629118112"><ele>1039.2857142857142</ele><time>2026-04-25T09:49:53Z</time></trkpt><trkpt lat="42.80478733639387" lon="12.567389144900194"><ele>1038.8571428571427</ele><time>2026-04-25T09:50:00Z</time></trkpt><trkpt lat="42.80485674952699" lon="12.567418616489935"><ele>1038.4285714285713</ele><time>2026-04-25T09:50:08Z</time></trkpt><trkpt lat="42.80492134276636" lon="12.567382115913396"><ele>1038.0</ele><time>2026-04-25T09:50:16Z</time></trkpt><trkpt lat="42.804979557859205" lon="12.567344159715871"><ele>1038.0</ele><time>2026-04-25T09:50:23Z</time></trkpt><trkpt lat="42.80503496844109" lon="12.567300384468664"><ele>1038.0</ele><time>2026-04-25T09:50:29Z</time></trkpt><trkpt lat="42.80509375243957" lon="12.56724802536765"><ele>1038.0</ele><time>2026-04-25T09:50:36Z</time></trkpt><trkpt lat="42.805153786923526" lon="12.567211009014354"><ele>1038.0</ele><time>2026-04-25T09:50:41Z</time></trkpt><trkpt lat="42.805218713064455" lon="12.567185381452687"><ele>1038.0</ele><time>2026-04-25T09:50:47Z</time></trkpt><trkpt lat="42.8052874256694" lon="12.56718106431157"><ele>1038.0</ele><time>2026-04-25T09:50:52Z</time></trkpt><trkpt lat="42.80536163535705" lon="12.56718791309538"><ele>1038.0</ele><time>2026-04-25T09:50:58Z</time></trkpt><trkpt lat="42.805425324974344" lon="12.567180193464338"><ele>1037.0</ele><time>2026-04-25T09:51:03Z</time></trkpt><trkpt lat="42.805492299284225" lon="12.567187054151384"><ele>1036.0</ele><time>2026-04-25T09:51:09Z</time></trkpt><trkpt lat="42.80555678064708" lon="12.567208996351498"><ele>1035.0</ele><time>2026-04-25T09:51:15Z</time></trkpt><trkpt lat="42.80563224459535" lon="12.567215667629778"><ele>1034.0</ele><time>2026-04-25T09:51:21Z</time></trkpt><trkpt lat="42.80569382228161" lon="12.56723976836018"><ele>1033.0</ele><time>2026-04-25T09:51:27Z</time></trkpt><trkpt lat="42.80575742322416" lon="12.5672492431663"><ele>1032.0</ele><time>2026-04-25T09:51:33Z</time></trkpt><trkpt lat="42.80582339674068" lon="12.567259311398205"><ele>1031.0</ele><time>2026-04-25T09:51:39Z</time></trkpt><trkpt lat="42.80590030257912" lon="12.567272525624453"><ele>1031.0</ele><time>2026-04-25T09:51:45Z</time></trkpt><trkpt lat="42.80596917106269" lon="12.567261126844398"><ele>1031.0</ele><time>2026-04-25T09:52:05Z</time></trkpt><trkpt lat="42.806030606291216" lon="12.567239920751462"><ele>1031.0</ele><time>2026-04-25T09:52:11Z</time></trkpt><trkpt lat="42.80609745698443" lon="12.567222537331974"><ele>1031.0</ele><time>2026-04-25T09:52:17Z</time></trkpt><trkpt lat="42.80615901349313" lon="12.5671851231845"><ele>1031.0</ele><time>2026-04-25T09:52:23Z</time></trkpt><trkpt lat="42.806211544395666" lon="12.567134454295507"><ele>1031.0</ele><time>2026-04-25T09:53:31Z</time></trkpt><trkpt lat="42.806253974332876" lon="12.56706640180483"><ele>1031.0</ele><time>2026-04-25T09:53:38Z</time></trkpt><trkpt lat="42.806286818652545" lon="12.566993139582795"><ele>1030.5714285714284</ele><time>2026-04-25T09:53:54Z</time></trkpt><trkpt lat="42.8063016235676" lon="12.566907681335818"><ele>1030.142857142857</ele><time>2026-04-25T09:54:03Z</time></trkpt><trkpt lat="42.80630789606274" lon="12.566810681826288"><ele>1029.7142857142858</ele><time>2026-04-25T09:55:29Z</time></trkpt><trkpt lat="42.80630936059843" lon="12.566720077635816"><ele>1029.2857142857142</ele><time>2026-04-25T09:55:36Z</time></trkpt><trkpt lat="42.80630403495187" lon="12.566623841102091"><ele>1028.857142857143</ele><time>2026-04-25T09:55:43Z</time></trkpt><trkpt lat="42.806294780120794" lon="12.566537603841677"><ele>1028.4285714285713</ele><time>2026-04-25T09:55:49Z</time></trkpt><trkpt lat="42.80628741175118" lon="12.566438311711208"><ele>1028.0</ele><time>2026-04-25T09:55:56Z</time></trkpt><trkpt lat="42.80627858190172" lon="12.56634570112081"><ele>1028.0</ele><time>2026-04-25T09:56:02Z</time></trkpt><trkpt lat="42.806264287552146" lon="12.566250407362853"><ele>1028.0</ele><time>2026-04-25T09:56:09Z</time></trkpt><trkpt lat="42.80625262379449" lon="12.566153270406666"><ele>1028.0</ele><time>2026-04-25T09:56:15Z</time></trkpt><trkpt lat="42.80626132635435" lon="12.566057075028525"><ele>1028.0</ele><time>2026-04-25T09:56:21Z</time></trkpt><trkpt lat="42.80626731813954" lon="12.565968528466849"><ele>1028.0</ele><time>2026-04-25T09:56:27Z</time></trkpt><trkpt lat="42.80628206562768" lon="12.56587767196295"><ele>1028.0</ele><time>2026-04-25T09:56:33Z</time></trkpt><trkpt lat="42.806289449940685" lon="12.565788900800296"><ele>1028.0</ele><time>2026-04-25T09:56:39Z</time></trkpt><trkpt lat="42.806321873253474" lon="12.5657091431953"><ele>1028.142857142857</ele><time>2026-04-25T09:56:46Z</time></trkpt><trkpt lat="42.8063392891321" lon="12.565614161195027"><ele>1028.2857142857142</ele><time>2026-04-25T09:56:53Z</time></trkpt><trkpt lat="42.80637142909988" lon="12.565540203489764"><ele>1028.4285714285716</ele><time>2026-04-25T09:57:00Z</time></trkpt><trkpt lat="42.806410685228805" lon="12.565466634001512"><ele>1028.5714285714284</ele><time>2026-04-25T09:57:15Z</time></trkpt><trkpt lat="42.80645282928373" lon="12.565390433938258"><ele>1028.7142857142858</ele><time>2026-04-25T09:58:18Z</time></trkpt><trkpt lat="42.806479789463175" lon="12.565302864779406"><ele>1028.857142857143</ele><time>2026-04-25T09:58:25Z</time></trkpt><trkpt lat="42.806492329032075" lon="12.565213328091232"><ele>1029.0</ele><time>2026-04-25T09:58:32Z</time></trkpt><trkpt lat="42.80649897961168" lon="12.565114228047745"><ele>1029.0</ele><time>2026-04-25T09:58:40Z</time></trkpt><trkpt lat="42.806537713928854" lon="12.565039467475556"><ele>1029.0</ele><time>2026-04-25T09:59:13Z</time></trkpt><trkpt lat="42.80655425093113" lon="12.564951700284679"><ele>1029.0</ele><time>2026-04-25T09:59:24Z</time></trkpt><trkpt lat="42.806554300532" lon="12.564863233881557"><ele>1029.0</ele><time>2026-04-25T09:59:35Z</time></trkpt><trkpt lat="42.806550377806914" lon="12.56476443765514"><ele>1029.0</ele><time>2026-04-25T09:59:46Z</time></trkpt><trkpt lat="42.80655521539788" lon="12.564674938859131"><ele>1029.0</ele><time>2026-04-25T09:59:58Z</time></trkpt><trkpt lat="42.80653039854095" lon="12.564588967036427"><ele>1029.0</ele><time>2026-04-25T10:00:08Z</time></trkpt><trkpt lat="42.80651594501621" lon="12.564502752480301"><ele>1027.142857142857</ele><time>2026-04-25T10:00:15Z</time></trkpt><trkpt lat="42.806501433985915" lon="12.564403696486433"><ele>1025.2857142857142</ele><time>2026-04-25T10:00:26Z</time></trkpt><trkpt lat="42.806495193569205" lon="12.56430465082243"><ele>1023.4285714285714</ele><time>2026-04-25T10:00:51Z</time></trkpt><trkpt lat="42.80645712116579" lon="12.564226034329819"><ele>1021.5714285714286</ele><time>2026-04-25T10:01:11Z</time></trkpt><trkpt lat="42.806431798186956" lon="12.564143455724365"><ele>1019.7142857142857</ele><time>2026-04-25T10:01:27Z</time></trkpt><trkpt lat="42.80640493289789" lon="12.564058666131988"><ele>1017.8571428571429</ele><time>2026-04-25T10:01:39Z</time></trkpt><trkpt lat="42.806373946819356" lon="12.563978154720893"><ele>1016.0</ele><time>2026-04-25T10:01:50Z</time></trkpt><trkpt lat="42.80640840531925" lon="12.563904018119896"><ele>1016.0</ele><time>2026-04-25T10:01:59Z</time></trkpt><trkpt lat="42.80647443361406" lon="12.563930163492916"><ele>1016.0</ele><time>2026-04-25T10:02:07Z</time></trkpt><trkpt lat="42.80652274331878" lon="12.563986559008475"><ele>1016.0</ele><time>2026-04-25T10:02:15Z</time></trkpt><trkpt lat="42.806583448292976" lon="12.564025895820293"><ele>1016.0</ele><time>2026-04-25T10:02:21Z</time></trkpt><trkpt lat="42.806536647795475" lon="12.563954292656367"><ele>1016.0</ele><time>2026-04-25T10:02:39Z</time></trkpt><trkpt lat="42.80647965064833" lon="12.563917781738532"><ele>1016.0</ele><time>2026-04-25T10:02:45Z</time></trkpt><trkpt lat="42.80643220814456" lon="12.563852665513071"><ele>1016.0</ele><time>2026-04-25T10:02:52Z</time></trkpt><trkpt lat="42.80638398507809" lon="12.563778943108625"><ele>1014.4285714285714</ele><time>2026-04-25T10:02:58Z</time></trkpt><trkpt lat="42.80637743180047" lon="12.563689290105902"><ele>1012.8571428571429</ele><time>2026-04-25T10:03:08Z</time></trkpt><trkpt lat="42.806440193485344" lon="12.563658164101117"><ele>1011.2857142857143</ele><time>2026-04-25T10:03:14Z</time></trkpt><trkpt lat="42.80650918425393" lon="12.563672444272623"><ele>1009.7142857142858</ele><time>2026-04-25T10:03:20Z</time></trkpt><trkpt lat="42.80657919042388" lon="12.563673051374813"><ele>1008.1428571428571</ele><time>2026-04-25T10:03:26Z</time></trkpt><trkpt lat="42.80665075386707" lon="12.56366413568176"><ele>1006.5714285714287</ele><time>2026-04-25T10:03:32Z</time></trkpt><trkpt lat="42.80672030698591" lon="12.563656477945292"><ele>1005.0000000000001</ele><time>2026-04-25T10:03:37Z</time></trkpt><trkpt lat="42.80678507356661" lon="12.563638900272071"><ele>1001.7142857142858</ele><time>2026-04-25T10:03:42Z</time></trkpt><trkpt lat="42.80684691743917" lon="12.56360468411625"><ele>998.4285714285714</ele><time>2026-04-25T10:03:47Z</time></trkpt><trkpt lat="42.80691702050937" lon="12.563577338791987"><ele>995.1428571428571</ele><time>2026-04-25T10:03:53Z</time></trkpt><trkpt lat="42.80697519512799" lon="12.563533075187017"><ele>991.8571428571429</ele><time>2026-04-25T10:04:01Z</time></trkpt><trkpt lat="42.807037663925755" lon="12.563502119180674"><ele>988.5714285714284</ele><time>2026-04-25T10:04:10Z</time></trkpt><trkpt lat="42.80708204409765" lon="12.563436742971136"><ele>985.2857142857142</ele><time>2026-04-25T10:04:18Z</time></trkpt><trkpt lat="42.80711024816871" lon="12.563354343830506"><ele>982.0</ele><time>2026-04-25T10:04:25Z</time></trkpt><trkpt lat="42.807152926216474" lon="12.563284444205635"><ele>982.0</ele><time>2026-04-25T10:04:34Z</time></trkpt><trkpt lat="42.807173533277705" lon="12.563189949141004"><ele>981.9999999999999</ele><time>2026-04-25T10:04:43Z</time></trkpt><trkpt lat="42.80718541614925" lon="12.56309541062318"><ele>982.0</ele><time>2026-04-25T10:04:50Z</time></trkpt><trkpt lat="42.80722035318089" lon="12.563014250196213"><ele>982.0</ele><time>2026-04-25T10:04:59Z</time></trkpt><trkpt lat="42.80725026883949" lon="12.56293329073876"><ele>981.9999999999999</ele><time>2026-04-25T10:05:07Z</time></trkpt><trkpt lat="42.80729857363519" lon="12.562855580084499"><ele>982.0</ele><time>2026-04-25T10:05:14Z</time></trkpt><trkpt lat="42.807326307835055" lon="12.56277799981315"><ele>982.0</ele><time>2026-04-25T10:05:19Z</time></trkpt><trkpt lat="42.80736366761363" lon="12.562703484035032"><ele>981.1428571428571</ele><time>2026-04-25T10:05:24Z</time></trkpt><trkpt lat="42.807388662273574" lon="12.562615820692578"><ele>980.2857142857142</ele><time>2026-04-25T10:05:28Z</time></trkpt><trkpt lat="42.807416693332534" lon="12.562536051020068"><ele>979.4285714285713</ele><time>2026-04-25T10:05:33Z</time></trkpt><trkpt lat="42.807462986682395" lon="12.562450167658085"><ele>978.5714285714284</ele><time>2026-04-25T10:05:39Z</time></trkpt><trkpt lat="42.807499190152974" lon="12.562364417795258"><ele>977.7142857142857</ele><time>2026-04-25T10:05:45Z</time></trkpt><trkpt lat="42.80751604536195" lon="12.56226841997885"><ele>976.8571428571427</ele><time>2026-04-25T10:05:51Z</time></trkpt><trkpt lat="42.8075287437444" lon="12.562174314232951"><ele>975.9999999999999</ele><time>2026-04-25T10:05:56Z</time></trkpt><trkpt lat="42.80751943300376" lon="12.562088315087463"><ele>975.9999999999999</ele><time>2026-04-25T10:06:02Z</time></trkpt><trkpt lat="42.80753944033488" lon="12.56198534789922"><ele>976.0</ele><time>2026-04-25T10:06:11Z</time></trkpt><trkpt lat="42.80756283993485" lon="12.56190357766175"><ele>975.9999999999999</ele><time>2026-04-25T10:06:15Z</time></trkpt><trkpt lat="42.807590187305564" lon="12.561821337766004"><ele>975.9999999999999</ele><time>2026-04-25T10:06:21Z</time></trkpt><trkpt lat="42.807620886037085" lon="12.561730890994259"><ele>976.0</ele><time>2026-04-25T10:06:26Z</time></trkpt><trkpt lat="42.80765209025445" lon="12.56164770309517"><ele>975.9999999999999</ele><time>2026-04-25T10:06:30Z</time></trkpt><trkpt lat="42.80767171379465" lon="12.561563698609486"><ele>975.9999999999999</ele><time>2026-04-25T10:06:37Z</time></trkpt><trkpt lat="42.807704811073954" lon="12.561472659510667"><ele>975.9999999999999</ele><time>2026-04-25T10:06:43Z</time></trkpt><trkpt lat="42.80772620130839" lon="12.561377441513821"><ele>976.0</ele><time>2026-04-25T10:06:49Z</time></trkpt><trkpt lat="42.80774489101005" lon="12.561278640578916"><ele>975.9999999999999</ele><time>2026-04-25T10:06:54Z</time></trkpt><trkpt lat="42.80778244536373" lon="12.561195411153033"><ele>975.9999999999999</ele><time>2026-04-25T10:07:01Z</time></trkpt><trkpt lat="42.80781510471975" lon="12.56112027285607"><ele>976.0</ele><time>2026-04-25T10:07:07Z</time></trkpt><trkpt lat="42.80784879771057" lon="12.561037462855404"><ele>975.9999999999999</ele><time>2026-04-25T10:07:13Z</time></trkpt><trkpt lat="42.807805796301274" lon="12.560964820119107"><ele>975.9999999999999</ele><time>2026-04-25T10:07:44Z</time></trkpt><trkpt lat="42.80776866064061" lon="12.560883442031265"><ele>974.8571428571427</ele><time>2026-04-25T10:07:51Z</time></trkpt><trkpt lat="42.80772549547778" lon="12.560815562346805"><ele>973.7142857142857</ele><time>2026-04-25T10:07:59Z</time></trkpt><trkpt lat="42.80768191882047" lon="12.560748691105237"><ele>972.5714285714284</ele><time>2026-04-25T10:08:11Z</time></trkpt><trkpt lat="42.80763464340224" lon="12.56066870682568"><ele>971.4285714285713</ele><time>2026-04-25T10:08:17Z</time></trkpt><trkpt lat="42.80758729290671" lon="12.560611854067465"><ele>970.2857142857142</ele><time>2026-04-25T10:08:23Z</time></trkpt><trkpt lat="42.80755027169783" lon="12.560536729150968"><ele>969.1428571428571</ele><time>2026-04-25T10:08:29Z</time></trkpt><trkpt lat="42.80750764419897" lon="12.5604584145036"><ele>968.0</ele><time>2026-04-25T10:08:35Z</time></trkpt><trkpt lat="42.80747447441469" lon="12.560381757363842"><ele>969.5714285714286</ele><time>2026-04-25T10:08:40Z</time></trkpt><trkpt lat="42.80743071605573" lon="12.56030711847131"><ele>971.1428571428571</ele><time>2026-04-25T10:08:47Z</time></trkpt><trkpt lat="42.80738528972774" lon="12.560243184503829"><ele>972.7142857142857</ele><time>2026-04-25T10:08:55Z</time></trkpt><trkpt lat="42.80741535650757" lon="12.560162323798052"><ele>974.2857142857142</ele><time>2026-04-25T10:09:48Z</time></trkpt><trkpt lat="42.80745949780254" lon="12.560097043277581"><ele>975.8571428571429</ele><time>2026-04-25T10:09:57Z</time></trkpt><trkpt lat="42.807513271455726" lon="12.560031358808812"><ele>977.4285714285713</ele><time>2026-04-25T10:10:17Z</time></trkpt><trkpt lat="42.80756841994032" lon="12.559978252870572"><ele>979.0</ele><time>2026-04-25T10:10:26Z</time></trkpt><trkpt lat="42.80761972193384" lon="12.559917842726266"><ele>975.2857142857142</ele><time>2026-04-25T10:10:36Z</time></trkpt><trkpt lat="42.807668373986616" lon="12.559862611066595"><ele>971.5714285714287</ele><time>2026-04-25T10:10:46Z</time></trkpt><trkpt lat="42.80771573067156" lon="12.559805420979488"><ele>967.8571428571429</ele><time>2026-04-25T10:10:56Z</time></trkpt><trkpt lat="42.80775662649745" lon="12.559732252074198"><ele>964.1428571428571</ele><time>2026-04-25T10:11:07Z</time></trkpt><trkpt lat="42.807793994152455" lon="12.559642788393921"><ele>960.4285714285713</ele><time>2026-04-25T10:11:16Z</time></trkpt><trkpt lat="42.80785066086669" lon="12.559580896602188"><ele>956.7142857142858</ele><time>2026-04-25T10:11:24Z</time></trkpt><trkpt lat="42.80789508127892" lon="12.559518332435045"><ele>953.0</ele><time>2026-04-25T10:11:32Z</time></trkpt><trkpt lat="42.80793063298519" lon="12.559443530879406"><ele>951.4285714285714</ele><time>2026-04-25T10:11:39Z</time></trkpt><trkpt lat="42.80795724057507" lon="12.559362610328641"><ele>949.8571428571429</ele><time>2026-04-25T10:11:49Z</time></trkpt><trkpt lat="42.80802332367246" lon="12.5593416501239"><ele>948.2857142857143</ele><time>2026-04-25T10:11:56Z</time></trkpt><trkpt lat="42.80806935916473" lon="12.559279647307346"><ele>946.7142857142858</ele><time>2026-04-25T10:12:05Z</time></trkpt><trkpt lat="42.80810254587107" lon="12.559205378921563"><ele>945.1428571428571</ele><time>2026-04-25T10:12:14Z</time></trkpt><trkpt lat="42.80817644262739" lon="12.559186038724164"><ele>943.5714285714287</ele><time>2026-04-25T10:12:36Z</time></trkpt><trkpt lat="42.80821978941175" lon="12.559123047024594"><ele>942.0000000000001</ele><time>2026-04-25T10:12:45Z</time></trkpt><trkpt lat="42.80825502796112" lon="12.559042474562041"><ele>942.0000000000001</ele><time>2026-04-25T10:12:52Z</time></trkpt><trkpt lat="42.80829351080161" lon="12.55896456123754"><ele>942.0</ele><time>2026-04-25T10:13:00Z</time></trkpt><trkpt lat="42.808319697048226" lon="12.558870016556206"><ele>942.0000000000001</ele><time>2026-04-25T10:13:09Z</time></trkpt><trkpt lat="42.808304548629536" lon="12.558784215918715"><ele>942.0000000000001</ele><time>2026-04-25T10:14:04Z</time></trkpt><trkpt lat="42.80824077133432" lon="12.558817818068938"><ele>942.0</ele><time>2026-04-25T10:14:20Z</time></trkpt><trkpt lat="42.80817451762338" lon="12.558791008692143"><ele>942.0000000000001</ele><time>2026-04-25T10:14:27Z</time></trkpt><trkpt lat="42.808108898372296" lon="12.55878973829495"><ele>942.0000000000001</ele><time>2026-04-25T10:14:36Z</time></trkpt><trkpt lat="42.80807044531816" lon="12.558707698647828"><ele>940.2857142857144</ele><time>2026-04-25T10:14:45Z</time></trkpt><trkpt lat="42.8080414339763" lon="12.558627474356559"><ele>938.5714285714287</ele><time>2026-04-25T10:15:04Z</time></trkpt><trkpt lat="42.807983976561346" lon="12.558586779305415"><ele>936.8571428571429</ele><time>2026-04-25T10:15:10Z</time></trkpt><trkpt lat="42.80797360301326" lon="12.558498846975102"><ele>935.1428571428572</ele><time>2026-04-25T10:15:16Z</time></trkpt><trkpt lat="42.807916102545185" lon="12.558427884945125"><ele>933.4285714285716</ele><time>2026-04-25T10:15:32Z</time></trkpt><trkpt lat="42.807899166880446" lon="12.558331226295499"><ele>931.7142857142857</ele><time>2026-04-25T10:15:41Z</time></trkpt><trkpt lat="42.807857637990125" lon="12.558264147213496"><ele>930.0</ele><time>2026-04-25T10:15:46Z</time></trkpt><trkpt lat="42.807783919306296" lon="12.558255461814504"><ele>930.0</ele><time>2026-04-25T10:15:53Z</time></trkpt><trkpt lat="42.80776088466111" lon="12.558172625095226"><ele>930.0</ele><time>2026-04-25T10:16:02Z</time></trkpt><trkpt lat="42.807724653731114" lon="12.558102016124124"><ele>930.0</ele><time>2026-04-25T10:16:08Z</time></trkpt><trkpt lat="42.807732793002494" lon="12.558014367870749"><ele>930.0</ele><time>2026-04-25T10:16:50Z</time></trkpt><trkpt lat="42.807709950844554" lon="12.557933161821065"><ele>930.0</ele><time>2026-04-25T10:17:02Z</time></trkpt><trkpt lat="42.8077025031207" lon="12.557847577612222"><ele>930.0</ele><time>2026-04-25T10:17:13Z</time></trkpt><trkpt lat="42.80771206081792" lon="12.557758632098704"><ele>930.0</ele><time>2026-04-25T10:17:28Z</time></trkpt><trkpt lat="42.80766895520681" lon="12.55761378425586"><ele>927.4285714285713</ele><time>2026-04-25T10:18:37Z</time></trkpt><trkpt lat="42.80768857078324" lon="12.557528209768083"><ele>924.8571428571429</ele><time>2026-04-25T10:18:46Z</time></trkpt><trkpt lat="42.807714427252805" lon="12.557437161253214"><ele>922.2857142857142</ele><time>2026-04-25T10:19:11Z</time></trkpt><trkpt lat="42.807766789055215" lon="12.557388109652385"><ele>919.7142857142857</ele><time>2026-04-25T10:19:24Z</time></trkpt><trkpt lat="42.807791400808284" lon="12.557306077183489"><ele>917.1428571428571</ele><time>2026-04-25T10:19:37Z</time></trkpt><trkpt lat="42.807823493255746" lon="12.557224516404977"><ele>914.5714285714286</ele><time>2026-04-25T10:19:51Z</time></trkpt><trkpt lat="42.80787960013056" lon="12.557179327024173"><ele>912.0</ele><time>2026-04-25T10:20:05Z</time></trkpt><trkpt lat="42.8079249078965" lon="12.55711631704882"><ele>912.0</ele><time>2026-04-25T10:20:17Z</time></trkpt><trkpt lat="42.807965636545056" lon="12.557048074710327"><ele>911.9999999999999</ele><time>2026-04-25T10:20:32Z</time></trkpt><trkpt lat="42.80802353942587" lon="12.557009501716252"><ele>912.0</ele><time>2026-04-25T10:20:41Z</time></trkpt><trkpt lat="42.80808413937903" lon="12.55697307160837"><ele>912.0</ele><time>2026-04-25T10:20:52Z</time></trkpt><trkpt lat="42.80810422031703" lon="12.556883702592145"><ele>911.9999999999999</ele><time>2026-04-25T10:21:05Z</time></trkpt><trkpt lat="42.80813835129376" lon="12.556806137703735"><ele>912.0</ele><time>2026-04-25T10:21:23Z</time></trkpt><trkpt lat="42.80813840999628" lon="12.556713127895936"><ele>912.0</ele><time>2026-04-25T10:21:48Z</time></trkpt><trkpt lat="42.808178241288786" lon="12.556644488509805"><ele>909.8571428571428</ele><time>2026-04-25T10:22:07Z</time></trkpt><trkpt lat="42.80824524055074" lon="12.55663750470328"><ele>907.7142857142856</ele><time>2026-04-25T10:22:18Z</time></trkpt><trkpt lat="42.808298005110686" lon="12.556582582793876"><ele>905.5714285714286</ele><time>2026-04-25T10:22:25Z</time></trkpt><trkpt lat="42.80835635922408" lon="12.556531356756443"><ele>903.4285714285713</ele><time>2026-04-25T10:22:33Z</time></trkpt><trkpt lat="42.808421310293156" lon="12.556536566425203"><ele>901.2857142857142</ele><time>2026-04-25T10:22:44Z</time></trkpt><trkpt lat="42.808455241588895" lon="12.556453910119926"><ele>899.1428571428571</ele><time>2026-04-25T10:22:52Z</time></trkpt><trkpt lat="42.8085107932302" lon="12.556398339848265"><ele>897.0</ele><time>2026-04-25T10:23:01Z</time></trkpt><trkpt lat="42.808564450588726" lon="12.556339238206128"><ele>896.8571428571429</ele><time>2026-04-25T10:23:11Z</time></trkpt><trkpt lat="42.808598968988875" lon="12.55625571413636"><ele>896.7142857142857</ele><time>2026-04-25T10:23:19Z</time></trkpt><trkpt lat="42.80864280080352" lon="12.556193662717078"><ele>896.5714285714286</ele><time>2026-04-25T10:23:33Z</time></trkpt><trkpt lat="42.80870620422774" lon="12.556176629502984"><ele>896.4285714285714</ele><time>2026-04-25T10:23:40Z</time></trkpt><trkpt lat="42.80877158584736" lon="12.556165500730177"><ele>896.2857142857142</ele><time>2026-04-25T10:23:49Z</time></trkpt><trkpt lat="42.80869203600903" lon="12.556143857192193"><ele>896.1428571428571</ele><time>2026-04-25T10:24:13Z</time></trkpt><trkpt lat="42.80866880309752" lon="12.556060335724878"><ele>896.0</ele><time>2026-04-25T10:24:22Z</time></trkpt><trkpt lat="42.80863820977002" lon="12.55598016489484"><ele>894.2857142857143</ele><time>2026-04-25T10:24:29Z</time></trkpt><trkpt lat="42.80864662281745" lon="12.555888739329601"><ele>892.5714285714286</ele><time>2026-04-25T10:24:40Z</time></trkpt><trkpt lat="42.80858152646753" lon="12.555849793062087"><ele>890.8571428571429</ele><time>2026-04-25T10:24:47Z</time></trkpt><trkpt lat="42.80859019841872" lon="12.55575724420944"><ele>889.1428571428571</ele><time>2026-04-25T10:24:54Z</time></trkpt><trkpt lat="42.808543792674314" lon="12.555692861435245"><ele>887.4285714285714</ele><time>2026-04-25T10:25:03Z</time></trkpt><trkpt lat="42.808521903585024" lon="12.555609133711473"><ele>885.7142857142858</ele><time>2026-04-25T10:25:10Z</time></trkpt><trkpt lat="42.808484447551876" lon="12.555528239216121"><ele>884.0</ele><time>2026-04-25T10:25:20Z</time></trkpt><trkpt lat="42.80847205199741" lon="12.555438326262047"><ele>884.0000000000001</ele><time>2026-04-25T10:25:31Z</time></trkpt><trkpt lat="42.80842431045048" lon="12.555379719278813"><ele>884.0</ele><time>2026-04-25T10:25:47Z</time></trkpt><trkpt lat="42.80837547065479" lon="12.555315822278317"><ele>884.0</ele><time>2026-04-25T10:26:31Z</time></trkpt><trkpt lat="42.80828367899635" lon="12.555242030435863"><ele>884.0</ele><time>2026-04-25T10:27:33Z</time></trkpt><trkpt lat="42.80823046871446" lon="12.555185074285998"><ele>884.0</ele><time>2026-04-25T10:27:57Z</time></trkpt><trkpt lat="42.80827217426146" lon="12.555109143839111"><ele>884.0000000000001</ele><time>2026-04-25T10:29:14Z</time></trkpt><trkpt lat="42.808234197597926" lon="12.555038133812193"><ele>884.0</ele><time>2026-04-25T10:29:39Z</time></trkpt><trkpt lat="42.80816907791339" lon="12.555001088010417"><ele>881.8571428571429</ele><time>2026-04-25T10:30:25Z</time></trkpt><trkpt lat="42.80814901481445" lon="12.554907854295513"><ele>879.7142857142858</ele><time>2026-04-25T10:30:42Z</time></trkpt><trkpt lat="42.80820465225335" lon="12.554848174016964"><ele>877.5714285714287</ele><time>2026-04-25T10:31:01Z</time></trkpt><trkpt lat="42.8081999252647" lon="12.55475025029528"><ele>875.4285714285714</ele><time>2026-04-25T10:32:17Z</time></trkpt><trkpt lat="42.80823331254073" lon="12.55467049565344"><ele>873.2857142857142</ele><time>2026-04-25T10:32:42Z</time></trkpt><trkpt lat="42.80819277488002" lon="12.55459583100995"><ele>871.1428571428572</ele><time>2026-04-25T10:32:48Z</time></trkpt><trkpt lat="42.80822896934793" lon="12.554469037251994"><ele>869.0</ele><time>2026-04-25T10:33:21Z</time></trkpt><trkpt lat="42.808229547849145" lon="12.554378850471522"><ele>866.4285714285714</ele><time>2026-04-25T10:33:34Z</time></trkpt><trkpt lat="42.80829139045731" lon="12.554331901993823"><ele>863.8571428571428</ele><time>2026-04-25T10:33:44Z</time></trkpt><trkpt lat="42.80829758379546" lon="12.554245824316627"><ele>861.2857142857142</ele><time>2026-04-25T10:33:54Z</time></trkpt><trkpt lat="42.80835305265505" lon="12.554200090359204"><ele>858.7142857142858</ele><time>2026-04-25T10:34:05Z</time></trkpt><trkpt lat="42.80841236141593" lon="12.55416023815124"><ele>856.1428571428571</ele><time>2026-04-25T10:34:19Z</time></trkpt><trkpt lat="42.80847475154911" lon="12.554185125759906"><ele>853.5714285714286</ele><time>2026-04-25T10:34:25Z</time></trkpt><trkpt lat="42.80853669956007" lon="12.554161013771866"><ele>851.0</ele><time>2026-04-25T10:34:32Z</time></trkpt><trkpt lat="42.80858909686451" lon="12.554088191254868"><ele>846.0</ele><time>2026-04-25T10:34:50Z</time></trkpt><trkpt lat="42.80868019010178" lon="12.55408327673689"><ele>841.0</ele><time>2026-04-25T10:35:10Z</time></trkpt><trkpt lat="42.80877286419799" lon="12.55403526302926"><ele>836.0</ele><time>2026-04-25T10:35:43Z</time></trkpt><trkpt lat="42.80881810955733" lon="12.55396807364876"><ele>831.0</ele><time>2026-04-25T10:35:56Z</time></trkpt><trkpt lat="42.80890343140092" lon="12.553936788804878"><ele>826.0</ele><time>2026-04-25T10:36:26Z</time></trkpt><trkpt lat="42.80903431002489" lon="12.553942739532477"><ele>825.9999999999999</ele><time>2026-04-25T10:36:52Z</time></trkpt><trkpt lat="42.808962250421324" lon="12.553849816030649"><ele>826.0</ele><time>2026-04-25T10:37:20Z</time></trkpt><trkpt lat="42.80903578055944" lon="12.553820009931432"><ele>826.0</ele><time>2026-04-25T10:40:22Z</time></trkpt><trkpt lat="42.80906137288679" lon="12.553904552346886"><ele>826.0</ele><time>2026-04-25T10:42:41Z</time></trkpt><trkpt lat="42.80910382299696" lon="12.553985558314643"><ele>825.9999999999999</ele><time>2026-04-25T10:42:53Z</time></trkpt><trkpt lat="42.80912896788806" lon="12.554067393862143"><ele>826.0</ele><time>2026-04-25T10:43:00Z</time></trkpt><trkpt lat="42.80916024493031" lon="12.554152554296884"><ele>826.0</ele><time>2026-04-25T10:43:08Z</time></trkpt><trkpt lat="42.80919384381964" lon="12.554238008113478"><ele>826.0</ele><time>2026-04-25T10:43:18Z</time></trkpt><trkpt lat="42.80921527596184" lon="12.55432153801161"><ele>826.0</ele><time>2026-04-25T10:43:28Z</time></trkpt><trkpt lat="42.80926436812843" lon="12.554387043993744"><ele>826.0</ele><time>2026-04-25T10:43:37Z</time></trkpt><trkpt lat="42.80932321990058" lon="12.554500454710128"><ele>826.0</ele><time>2026-04-25T10:43:52Z</time></trkpt><trkpt lat="42.8093575330029" lon="12.554582677607945"><ele>826.0</ele><time>2026-04-25T10:44:01Z</time></trkpt><trkpt lat="42.80939827818808" lon="12.554660030911865"><ele>826.0</ele><time>2026-04-25T10:44:11Z</time></trkpt><trkpt lat="42.80942393951641" lon="12.55476108124266"><ele>824.7142857142857</ele><time>2026-04-25T10:44:24Z</time></trkpt><trkpt lat="42.809472698719055" lon="12.554835030453864"><ele>823.4285714285714</ele><time>2026-04-25T10:44:34Z</time></trkpt><trkpt lat="42.80951768996058" lon="12.554908746039944"><ele>822.1428571428571</ele><time>2026-04-25T10:44:43Z</time></trkpt><trkpt lat="42.80954295623228" lon="12.554993272145403"><ele>820.8571428571429</ele><time>2026-04-25T10:44:53Z</time></trkpt><trkpt lat="42.80955925035128" lon="12.555079282184566"><ele>819.5714285714286</ele><time>2026-04-25T10:45:07Z</time></trkpt><trkpt lat="42.80960199458791" lon="12.555144927621404"><ele>818.2857142857142</ele><time>2026-04-25T10:45:15Z</time></trkpt><trkpt lat="42.809637314841055" lon="12.555219517339475"><ele>817.0</ele><time>2026-04-25T10:45:26Z</time></trkpt><trkpt lat="42.80968433735553" lon="12.555281970910542"><ele>816.9999999999999</ele><time>2026-04-25T10:45:35Z</time></trkpt><trkpt lat="42.80972436721953" lon="12.55535452419953"><ele>817.0</ele><time>2026-04-25T10:45:46Z</time></trkpt><trkpt lat="42.80975102991799" lon="12.555435003072613"><ele>817.0</ele><time>2026-04-25T10:45:55Z</time></trkpt><trkpt lat="42.80978490813887" lon="12.555507384921938"><ele>817.0</ele><time>2026-04-25T10:46:04Z</time></trkpt><trkpt lat="42.809814834837695" lon="12.55558691117351"><ele>817.0</ele><time>2026-04-25T10:46:14Z</time></trkpt><trkpt lat="42.809843274139716" lon="12.555676242040878"><ele>816.9999999999999</ele><time>2026-04-25T10:46:22Z</time></trkpt><trkpt lat="42.80987200061803" lon="12.555754973532494"><ele>817.0</ele><time>2026-04-25T10:46:30Z</time></trkpt><trkpt lat="42.80991627919504" lon="12.555836106786225"><ele>819.8571428571428</ele><time>2026-04-25T10:46:38Z</time></trkpt><trkpt lat="42.80995423693022" lon="12.555905328963615"><ele>822.7142857142857</ele><time>2026-04-25T10:46:47Z</time></trkpt><trkpt lat="42.809986584248804" lon="12.555988420510317"><ele>825.5714285714286</ele><time>2026-04-25T10:46:55Z</time></trkpt><trkpt lat="42.810027080368336" lon="12.556057250912104"><ele>828.4285714285713</ele><time>2026-04-25T10:47:04Z</time></trkpt><trkpt lat="42.81005325232243" lon="12.556147798924584"><ele>831.2857142857143</ele><time>2026-04-25T10:47:17Z</time></trkpt><trkpt lat="42.81009885411019" lon="12.556221727925491"><ele>834.1428571428571</ele><time>2026-04-25T10:47:27Z</time></trkpt><trkpt lat="42.81013229068592" lon="12.556298158562015"><ele>837.0</ele><time>2026-04-25T10:47:35Z</time></trkpt><trkpt lat="42.810165497997865" lon="12.556379053585463"><ele>837.0</ele><time>2026-04-25T10:47:44Z</time></trkpt><trkpt lat="42.81019890561312" lon="12.55645715567355"><ele>837.0</ele><time>2026-04-25T10:47:52Z</time></trkpt><trkpt lat="42.810235801358566" lon="12.556534530266742"><ele>837.0</ele><time>2026-04-25T10:48:01Z</time></trkpt><trkpt lat="42.81027367168381" lon="12.556603903879164"><ele>837.0</ele><time>2026-04-25T10:48:12Z</time></trkpt><trkpt lat="42.81031215926008" lon="12.556696043426582"><ele>837.0</ele><time>2026-04-25T10:48:23Z</time></trkpt><trkpt lat="42.81035479108121" lon="12.556767991780466"><ele>837.0</ele><time>2026-04-25T10:48:33Z</time></trkpt><trkpt lat="42.81038300593438" lon="12.556845172048451"><ele>837.0</ele><time>2026-04-25T10:48:40Z</time></trkpt><trkpt lat="42.81040523542066" lon="12.556930743011968"><ele>837.0</ele><time>2026-04-25T10:48:52Z</time></trkpt><trkpt lat="42.81045046255934" lon="12.556998085123698"><ele>837.0</ele><time>2026-04-25T10:49:12Z</time></trkpt><trkpt lat="42.81048579233154" lon="12.557071749671682"><ele>837.0</ele><time>2026-04-25T10:49:20Z</time></trkpt><trkpt lat="42.810511281075286" lon="12.557166262991386"><ele>837.0</ele><time>2026-04-25T10:49:30Z</time></trkpt><trkpt lat="42.810530816977796" lon="12.557260479578341"><ele>837.0</ele><time>2026-04-25T10:49:40Z</time></trkpt><trkpt lat="42.810544243808536" lon="12.557350386754592"><ele>837.0</ele><time>2026-04-25T10:49:49Z</time></trkpt><trkpt lat="42.81052134677534" lon="12.557437872173974"><ele>837.0</ele><time>2026-04-25T10:49:58Z</time></trkpt><trkpt lat="42.81048940645555" lon="12.557518095212512"><ele>839.7142857142858</ele><time>2026-04-25T10:50:05Z</time></trkpt><trkpt lat="42.8104508830289" lon="12.55759210879013"><ele>842.4285714285714</ele><time>2026-04-25T10:50:13Z</time></trkpt><trkpt lat="42.810427045498784" lon="12.557675025576678"><ele>845.1428571428571</ele><time>2026-04-25T10:50:35Z</time></trkpt><trkpt lat="42.81038218970444" lon="12.55774099457211"><ele>847.8571428571429</ele><time>2026-04-25T10:50:42Z</time></trkpt><trkpt lat="42.810343898106424" lon="12.557817617819563"><ele>850.5714285714286</ele><time>2026-04-25T10:50:54Z</time></trkpt><trkpt lat="42.81032156925277" lon="12.557900873429679"><ele>853.2857142857143</ele><time>2026-04-25T10:51:01Z</time></trkpt><trkpt lat="42.81031379203515" lon="12.557989991748386"><ele>856.0</ele><time>2026-04-25T10:51:10Z</time></trkpt><trkpt lat="42.810349469372696" lon="12.55806476914706"><ele>859.0000000000001</ele><time>2026-04-25T10:52:31Z</time></trkpt><trkpt lat="42.8104078129711" lon="12.558111945107669"><ele>862.0</ele><time>2026-04-25T10:52:38Z</time></trkpt><trkpt lat="42.81047664791732" lon="12.558120134538596"><ele>865.0</ele><time>2026-04-25T10:52:46Z</time></trkpt><trkpt lat="42.81054224536816" lon="12.558122625516335"><ele>868.0</ele><time>2026-04-25T10:52:52Z</time></trkpt><trkpt lat="42.810605111207366" lon="12.558113310722801"><ele>871.0</ele><time>2026-04-25T10:52:58Z</time></trkpt><trkpt lat="42.81067201628195" lon="12.558104035184048"><ele>874.0000000000001</ele><time>2026-04-25T10:53:05Z</time></trkpt><trkpt lat="42.81073521228796" lon="12.558104452076977"><ele>877.0</ele><time>2026-04-25T10:53:12Z</time></trkpt><trkpt lat="42.81080638990095" lon="12.558110341793551"><ele>877.0000000000001</ele><time>2026-04-25T10:53:20Z</time></trkpt><trkpt lat="42.81087759655033" lon="12.558113432163948"><ele>877.0</ele><time>2026-04-25T10:53:28Z</time></trkpt><trkpt lat="42.81094790617954" lon="12.558125219972236"><ele>877.0</ele><time>2026-04-25T10:53:36Z</time></trkpt><trkpt lat="42.81101630550867" lon="12.55814585955293"><ele>877.0</ele><time>2026-04-25T10:53:44Z</time></trkpt><trkpt lat="42.811084584267434" lon="12.558170364967333"><ele>877.0</ele><time>2026-04-25T10:53:51Z</time></trkpt><trkpt lat="42.81115058315094" lon="12.558196744611061"><ele>877.0000000000001</ele><time>2026-04-25T10:53:58Z</time></trkpt><trkpt lat="42.81121305155087" lon="12.558231769921475"><ele>877.0</ele><time>2026-04-25T10:54:05Z</time></trkpt><trkpt lat="42.811270349346586" lon="12.558271577369041"><ele>875.8571428571429</ele><time>2026-04-25T10:54:11Z</time></trkpt><trkpt lat="42.81132524852293" lon="12.558315984237707"><ele>874.7142857142858</ele><time>2026-04-25T10:54:26Z</time></trkpt><trkpt lat="42.81137976240662" lon="12.558364237998907"><ele>873.5714285714287</ele><time>2026-04-25T10:54:34Z</time></trkpt><trkpt lat="42.81144214516149" lon="12.558405292113786"><ele>872.4285714285714</ele><time>2026-04-25T10:54:41Z</time></trkpt><trkpt lat="42.811497236445504" lon="12.558452336989285"><ele>871.2857142857142</ele><time>2026-04-25T10:54:49Z</time></trkpt><trkpt lat="42.81155814559671" lon="12.558494536801728"><ele>870.1428571428572</ele><time>2026-04-25T10:54:56Z</time></trkpt><trkpt lat="42.811618887607914" lon="12.558537975156433"><ele>869.0</ele><time>2026-04-25T10:55:03Z</time></trkpt><trkpt lat="42.81167926726723" lon="12.558577524584852"><ele>869.0</ele><time>2026-04-25T10:55:10Z</time></trkpt><trkpt lat="42.81173897586724" lon="12.558624892623593"><ele>869.0</ele><time>2026-04-25T10:55:17Z</time></trkpt><trkpt lat="42.81179761783039" lon="12.558664158613375"><ele>869.0</ele><time>2026-04-25T10:55:24Z</time></trkpt><trkpt lat="42.81186158831525" lon="12.55870690025219"><ele>869.0</ele><time>2026-04-25T10:55:31Z</time></trkpt><trkpt lat="42.81192452287961" lon="12.558744185626969"><ele>869.0</ele><time>2026-04-25T10:55:38Z</time></trkpt><trkpt lat="42.811988422194865" lon="12.558775417335106"><ele>869.0</ele><time>2026-04-25T10:55:45Z</time></trkpt><trkpt lat="42.81205847215299" lon="12.558799758596704"><ele>869.0</ele><time>2026-04-25T10:55:56Z</time></trkpt><trkpt lat="42.8121222378068" lon="12.558835218883642"><ele>870.8571428571429</ele><time>2026-04-25T10:56:03Z</time></trkpt><trkpt lat="42.81218110833112" lon="12.558876001624924"><ele>872.7142857142857</ele><time>2026-04-25T10:56:10Z</time></trkpt><trkpt lat="42.81224459294815" lon="12.558912237947235"><ele>874.5714285714286</ele><time>2026-04-25T10:56:17Z</time></trkpt><trkpt lat="42.81230338636275" lon="12.558944744701641"><ele>876.4285714285714</ele><time>2026-04-25T10:56:23Z</time></trkpt><trkpt lat="42.81237125183534" lon="12.558983491334358"><ele>878.2857142857142</ele><time>2026-04-25T10:56:30Z</time></trkpt><trkpt lat="42.81243401293955" lon="12.55901358972587"><ele>880.1428571428571</ele><time>2026-04-25T10:56:36Z</time></trkpt><trkpt lat="42.81249639364954" lon="12.559051261456869"><ele>882.0</ele><time>2026-04-25T10:56:42Z</time></trkpt><trkpt lat="42.81256236409751" lon="12.559077277970083"><ele>882.0</ele><time>2026-04-25T10:56:48Z</time></trkpt><trkpt lat="42.8126275647984" lon="12.559103518710247"><ele>882.0</ele><time>2026-04-25T10:56:54Z</time></trkpt><trkpt lat="42.81269333831596" lon="12.559131175375319"><ele>882.0</ele><time>2026-04-25T10:57:00Z</time></trkpt><trkpt lat="42.81275739375224" lon="12.559153351608844"><ele>882.0</ele><time>2026-04-25T10:57:06Z</time></trkpt><trkpt lat="42.81281945877055" lon="12.559175471849434"><ele>882.0</ele><time>2026-04-25T10:57:12Z</time></trkpt><trkpt lat="42.81288173071622" lon="12.559189452349711"><ele>882.0</ele><time>2026-04-25T10:57:18Z</time></trkpt><trkpt lat="42.812939487456894" lon="12.559226259882124"><ele>882.0</ele><time>2026-04-25T10:57:24Z</time></trkpt><trkpt lat="42.81298582515924" lon="12.559287511119265"><ele>881.8571428571429</ele><time>2026-04-25T10:57:31Z</time></trkpt><trkpt lat="42.812954335553805" lon="12.559380620879832"><ele>881.7142857142858</ele><time>2026-04-25T10:57:42Z</time></trkpt><trkpt lat="42.8129197136455" lon="12.559459553722597"><ele>881.5714285714286</ele><time>2026-04-25T10:57:49Z</time></trkpt><trkpt lat="42.81288393330933" lon="12.559533193358869"><ele>881.4285714285714</ele><time>2026-04-25T10:57:57Z</time></trkpt><trkpt lat="42.81285046106281" lon="12.559608644670591"><ele>881.2857142857143</ele><time>2026-04-25T10:58:06Z</time></trkpt><trkpt lat="42.81279589147044" lon="12.559664315052546"><ele>881.1428571428571</ele><time>2026-04-25T10:58:15Z</time></trkpt><trkpt lat="42.81275079132064" lon="12.559735221269905"><ele>881.0</ele><time>2026-04-25T10:58:37Z</time></trkpt><trkpt lat="42.81269449710769" lon="12.55979688642821"><ele>883.0</ele><time>2026-04-25T10:58:53Z</time></trkpt><trkpt lat="42.812648373085715" lon="12.559869362912927"><ele>885.0</ele><time>2026-04-25T10:59:02Z</time></trkpt><trkpt lat="42.81261998922504" lon="12.559946814007109"><ele>887.0</ele><time>2026-04-25T10:59:48Z</time></trkpt><trkpt lat="42.81257712779231" lon="12.560011641308893"><ele>889.0</ele><time>2026-04-25T11:00:01Z</time></trkpt><trkpt lat="42.81252483033305" lon="12.560071116554749"><ele>891.0</ele><time>2026-04-25T11:00:10Z</time></trkpt><trkpt lat="42.812467688180085" lon="12.560114802290991"><ele>893.0</ele><time>2026-04-25T11:00:17Z</time></trkpt><trkpt lat="42.81242978427962" lon="12.560194604973587"><ele>895.0</ele><time>2026-04-25T11:00:36Z</time></trkpt><trkpt lat="42.81239449590347" lon="12.560272231138498"><ele>895.0</ele><time>2026-04-25T11:00:49Z</time></trkpt><trkpt lat="42.81236065678162" lon="12.56034636647445"><ele>895.0</ele><time>2026-04-25T11:01:02Z</time></trkpt><trkpt lat="42.81235449466328" lon="12.56043495553943"><ele>895.0</ele><time>2026-04-25T11:01:14Z</time></trkpt><trkpt lat="42.81237547722137" lon="12.56053001134065"><ele>895.0</ele><time>2026-04-25T11:01:24Z</time></trkpt><trkpt lat="42.8123837872187" lon="12.560622839152122"><ele>895.0</ele><time>2026-04-25T11:01:36Z</time></trkpt><trkpt lat="42.81240153680461" lon="12.560707856774108"><ele>895.0</ele><time>2026-04-25T11:01:51Z</time></trkpt><trkpt lat="42.81242607633602" lon="12.560801021720687"><ele>895.0</ele><time>2026-04-25T11:02:02Z</time></trkpt><trkpt lat="42.81243423592381" lon="12.560888324912185"><ele>896.0</ele><time>2026-04-25T11:02:11Z</time></trkpt><trkpt lat="42.812450251912125" lon="12.560974194392417"><ele>897.0</ele><time>2026-04-25T11:02:28Z</time></trkpt><trkpt lat="42.81246284952914" lon="12.561062011285536"><ele>898.0</ele><time>2026-04-25T11:02:36Z</time></trkpt><trkpt lat="42.812464293255346" lon="12.561157922761284"><ele>899.0</ele><time>2026-04-25T11:02:44Z</time></trkpt><trkpt lat="42.81246662090504" lon="12.561251062766015"><ele>900.0</ele><time>2026-04-25T11:02:51Z</time></trkpt><trkpt lat="42.812460020653646" lon="12.561342923752242"><ele>901.0</ele><time>2026-04-25T11:02:58Z</time></trkpt><trkpt lat="42.8124582860865" lon="12.561428727825179"><ele>902.0</ele><time>2026-04-25T11:03:05Z</time></trkpt><trkpt lat="42.81244790520206" lon="12.561521375384448"><ele>903.2857142857142</ele><time>2026-04-25T11:03:12Z</time></trkpt><trkpt lat="42.81243202248611" lon="12.561607485677527"><ele>904.5714285714287</ele><time>2026-04-25T11:03:46Z</time></trkpt><trkpt lat="42.81243862433161" lon="12.561695175999269"><ele>905.8571428571429</ele><time>2026-04-25T11:03:55Z</time></trkpt><trkpt lat="42.812456993254976" lon="12.561781873355308"><ele>907.1428571428571</ele><time>2026-04-25T11:04:03Z</time></trkpt><trkpt lat="42.81247984822593" lon="12.561871581316725"><ele>908.4285714285713</ele><time>2026-04-25T11:04:12Z</time></trkpt><trkpt lat="42.812511536167186" lon="12.561945900263206"><ele>909.7142857142858</ele><time>2026-04-25T11:04:20Z</time></trkpt><trkpt lat="42.81254207673293" lon="12.562029200866887"><ele>911.0</ele><time>2026-04-25T11:04:29Z</time></trkpt><trkpt lat="42.812585494064905" lon="12.562106121533194"><ele>909.4285714285714</ele><time>2026-04-25T11:04:36Z</time></trkpt><trkpt lat="42.812623191595634" lon="12.562189652088732"><ele>907.8571428571429</ele><time>2026-04-25T11:04:43Z</time></trkpt><trkpt lat="42.812655654044924" lon="12.56227275913748"><ele>906.2857142857143</ele><time>2026-04-25T11:04:50Z</time></trkpt><trkpt lat="42.812689709301985" lon="12.562360524862589"><ele>904.7142857142858</ele><time>2026-04-25T11:04:57Z</time></trkpt><trkpt lat="42.812720094766796" lon="12.562442625101724"><ele>903.1428571428571</ele><time>2026-04-25T11:05:04Z</time></trkpt><trkpt lat="42.812744448759965" lon="12.562523349918095"><ele>901.5714285714287</ele><time>2026-04-25T11:05:10Z</time></trkpt><trkpt lat="42.81278624866285" lon="12.56260795937644"><ele>900.0000000000001</ele><time>2026-04-25T11:05:17Z</time></trkpt><trkpt lat="42.81280982893166" lon="12.562689140904101"><ele>900.0000000000001</ele><time>2026-04-25T11:05:26Z</time></trkpt><trkpt lat="42.812748835773455" lon="12.562723864967502"><ele>900.0</ele><time>2026-04-25T11:05:37Z</time></trkpt><trkpt lat="42.81266259338865" lon="12.562781867370788"><ele>900.0000000000001</ele><time>2026-04-25T11:05:51Z</time></trkpt><trkpt lat="42.812601637135614" lon="12.562806066823754"><ele>900.0000000000001</ele><time>2026-04-25T11:05:57Z</time></trkpt><trkpt lat="42.81252731990598" lon="12.562809506324298"><ele>900.0</ele><time>2026-04-25T11:06:06Z</time></trkpt><trkpt lat="42.812461851564265" lon="12.562829140196685"><ele>900.0000000000001</ele><time>2026-04-25T11:06:15Z</time></trkpt><trkpt lat="42.812396901796255" lon="12.562827663101725"><ele>900.0000000000001</ele><time>2026-04-25T11:06:25Z</time></trkpt><trkpt lat="42.812331096562254" lon="12.562812608663727"><ele>903.4285714285716</ele><time>2026-04-25T11:06:33Z</time></trkpt><trkpt lat="42.81225783350749" lon="12.562817440951855"><ele>906.8571428571429</ele><time>2026-04-25T11:06:43Z</time></trkpt><trkpt lat="42.81218655137938" lon="12.562826196273393"><ele>910.2857142857143</ele><time>2026-04-25T11:06:55Z</time></trkpt><trkpt lat="42.812111275098815" lon="12.562824610566146"><ele>913.7142857142858</ele><time>2026-04-25T11:07:04Z</time></trkpt><trkpt lat="42.81204780584055" lon="12.562818941854745"><ele>917.1428571428571</ele><time>2026-04-25T11:07:13Z</time></trkpt><trkpt lat="42.811981750019555" lon="12.562811444611228"><ele>920.5714285714286</ele><time>2026-04-25T11:07:21Z</time></trkpt><trkpt lat="42.81191232460509" lon="12.562804443749938"><ele>924.0</ele><time>2026-04-25T11:07:27Z</time></trkpt><trkpt lat="42.811840984360835" lon="12.562792842494774"><ele>926.2857142857142</ele><time>2026-04-25T11:07:37Z</time></trkpt><trkpt lat="42.81177341213015" lon="12.56277170103845"><ele>928.5714285714286</ele><time>2026-04-25T11:07:44Z</time></trkpt><trkpt lat="42.81169713283374" lon="12.562760123872735"><ele>930.8571428571429</ele><time>2026-04-25T11:07:51Z</time></trkpt><trkpt lat="42.81163003352113" lon="12.562771851790986"><ele>933.1428571428571</ele><time>2026-04-25T11:07:58Z</time></trkpt><trkpt lat="42.81155929047452" lon="12.562774938128998"><ele>935.4285714285713</ele><time>2026-04-25T11:08:05Z</time></trkpt><trkpt lat="42.81149291277333" lon="12.562762647745355"><ele>937.7142857142857</ele><time>2026-04-25T11:08:11Z</time></trkpt><trkpt lat="42.81142977201511" lon="12.562753037879078"><ele>940.0</ele><time>2026-04-25T11:08:17Z</time></trkpt><trkpt lat="42.811363881240354" lon="12.562759344276603"><ele>940.0</ele><time>2026-04-25T11:08:25Z</time></trkpt><trkpt lat="42.811290684840266" lon="12.562759271146447"><ele>939.9999999999999</ele><time>2026-04-25T11:08:32Z</time></trkpt><trkpt lat="42.811219561814305" lon="12.562751727076925"><ele>940.0</ele><time>2026-04-25T11:08:40Z</time></trkpt><trkpt lat="42.811152056899616" lon="12.562747843109642"><ele>940.0</ele><time>2026-04-25T11:08:47Z</time></trkpt><trkpt lat="42.81108211870479" lon="12.562747151680561"><ele>939.9999999999999</ele><time>2026-04-25T11:08:54Z</time></trkpt><trkpt lat="42.81100736293854" lon="12.562755528036739"><ele>940.0</ele><time>2026-04-25T11:09:00Z</time></trkpt><trkpt lat="42.81094471012501" lon="12.562746442044794"><ele>940.0</ele><time>2026-04-25T11:09:07Z</time></trkpt><trkpt lat="42.81087869680704" lon="12.562733890484937"><ele>941.4285714285713</ele><time>2026-04-25T11:09:14Z</time></trkpt><trkpt lat="42.810808724652894" lon="12.562736182553014"><ele>942.8571428571428</ele><time>2026-04-25T11:09:19Z</time></trkpt><trkpt lat="42.81074172193818" lon="12.5627400840185"><ele>944.2857142857142</ele><time>2026-04-25T11:09:25Z</time></trkpt><trkpt lat="42.810684747045435" lon="12.562701925579379"><ele>945.7142857142858</ele><time>2026-04-25T11:09:36Z</time></trkpt><trkpt lat="42.81060309705373" lon="12.562732796504445"><ele>947.1428571428572</ele><time>2026-04-25T11:09:41Z</time></trkpt><trkpt lat="42.810529756082396" lon="12.562736587378769"><ele>948.5714285714287</ele><time>2026-04-25T11:10:06Z</time></trkpt><trkpt lat="42.810465129521496" lon="12.562732869522549"><ele>950.0</ele><time>2026-04-25T11:10:15Z</time></trkpt><trkpt lat="42.81039684234621" lon="12.562755913063244"><ele>950.0</ele><time>2026-04-25T11:10:24Z</time></trkpt><trkpt lat="42.810330236959764" lon="12.562776083514182"><ele>950.0000000000001</ele><time>2026-04-25T11:10:31Z</time></trkpt><trkpt lat="42.81025748527442" lon="12.562781329984423"><ele>950.0</ele><time>2026-04-25T11:10:39Z</time></trkpt><trkpt lat="42.81019262629041" lon="12.562803468429243"><ele>950.0</ele><time>2026-04-25T11:10:52Z</time></trkpt><trkpt lat="42.81012113939198" lon="12.562804512045078"><ele>950.0000000000001</ele><time>2026-04-25T11:11:00Z</time></trkpt><trkpt lat="42.81005835220816" lon="12.5628205911869"><ele>950.0</ele><time>2026-04-25T11:11:11Z</time></trkpt><trkpt lat="42.809997570140204" lon="12.562851374373276"><ele>950.0</ele><time>2026-04-25T11:11:20Z</time></trkpt><trkpt lat="42.80992815256209" lon="12.562871104887902"><ele>952.2857142857143</ele><time>2026-04-25T11:11:28Z</time></trkpt><trkpt lat="42.809864615069976" lon="12.562854245150513"><ele>954.5714285714287</ele><time>2026-04-25T11:11:35Z</time></trkpt><trkpt lat="42.809801246614356" lon="12.562841542694539"><ele>956.8571428571429</ele><time>2026-04-25T11:11:43Z</time></trkpt><trkpt lat="42.80973796507776" lon="12.56281194579124"><ele>959.1428571428571</ele><time>2026-04-25T11:11:50Z</time></trkpt><trkpt lat="42.80966628696076" lon="12.562790920854056"><ele>961.4285714285714</ele><time>2026-04-25T11:11:58Z</time></trkpt><trkpt lat="42.80959997952087" lon="12.562767253131033"><ele>963.7142857142858</ele><time>2026-04-25T11:12:06Z</time></trkpt><trkpt lat="42.80953273108058" lon="12.562744914239067"><ele>966.0</ele><time>2026-04-25T11:12:13Z</time></trkpt><trkpt lat="42.809467861523075" lon="12.562717762800814"><ele>966.0</ele><time>2026-04-25T11:12:22Z</time></trkpt><trkpt lat="42.80939844741089" lon="12.562688076986158"><ele>966.0</ele><time>2026-04-25T11:12:29Z</time></trkpt><trkpt lat="42.80932552258147" lon="12.562666433559176"><ele>966.0</ele><time>2026-04-25T11:12:36Z</time></trkpt><trkpt lat="42.809257392171" lon="12.562655804657982"><ele>966.0</ele><time>2026-04-25T11:12:42Z</time></trkpt><trkpt lat="42.80918645432837" lon="12.56263579122361"><ele>966.0</ele><time>2026-04-25T11:12:50Z</time></trkpt><trkpt lat="42.809112622204026" lon="12.562620512340665"><ele>966.0</ele><time>2026-04-25T11:12:57Z</time></trkpt><trkpt lat="42.809041785052884" lon="12.56260461662123"><ele>966.0</ele><time>2026-04-25T11:13:04Z</time></trkpt><trkpt lat="42.80897133938024" lon="12.562590502423634"><ele>967.1428571428571</ele><time>2026-04-25T11:13:10Z</time></trkpt><trkpt lat="42.80890888214328" lon="12.56256184013021"><ele>968.2857142857142</ele><time>2026-04-25T11:13:17Z</time></trkpt><trkpt lat="42.808843743024326" lon="12.562547759073235"><ele>969.4285714285714</ele><time>2026-04-25T11:13:24Z</time></trkpt><trkpt lat="42.80878020229451" lon="12.562529947058264"><ele>970.5714285714286</ele><time>2026-04-25T11:13:29Z</time></trkpt><trkpt lat="42.80871639628962" lon="12.562505606515845"><ele>971.7142857142857</ele><time>2026-04-25T11:13:37Z</time></trkpt><trkpt lat="42.80866122317241" lon="12.562450777604115"><ele>972.8571428571429</ele><time>2026-04-25T11:13:45Z</time></trkpt><trkpt lat="42.8086096149804" lon="12.562398997341583"><ele>974.0</ele><time>2026-04-25T11:13:52Z</time></trkpt><trkpt lat="42.80855284047451" lon="12.562340350023762"><ele>974.0</ele><time>2026-04-25T11:13:59Z</time></trkpt><trkpt lat="42.808517398094565" lon="12.562268186194396"><ele>974.0</ele><time>2026-04-25T11:14:09Z</time></trkpt><trkpt lat="42.808446149316204" lon="12.562269605262843"><ele>974.0</ele><time>2026-04-25T11:14:18Z</time></trkpt><trkpt lat="42.808381504917506" lon="12.562268593934833"><ele>974.0</ele><time>2026-04-25T11:14:25Z</time></trkpt><trkpt lat="42.808324590546725" lon="12.562225726504485"><ele>974.0</ele><time>2026-04-25T11:15:24Z</time></trkpt><trkpt lat="42.8082534317574" lon="12.562223035717983"><ele>974.0</ele><time>2026-04-25T11:15:32Z</time></trkpt><trkpt lat="42.80818974691348" lon="12.56220532614256"><ele>974.0</ele><time>2026-04-25T11:15:43Z</time></trkpt><trkpt lat="42.80811748120351" lon="12.562199663443316"><ele>974.2857142857143</ele><time>2026-04-25T11:15:49Z</time></trkpt><trkpt lat="42.80805265011129" lon="12.562184013795713"><ele>974.5714285714284</ele><time>2026-04-25T11:15:56Z</time></trkpt><trkpt lat="42.807988142363534" lon="12.562179849410864"><ele>974.8571428571428</ele><time>2026-04-25T11:16:01Z</time></trkpt><trkpt lat="42.80791953463491" lon="12.562164577437906"><ele>975.1428571428571</ele><time>2026-04-25T11:16:08Z</time></trkpt><trkpt lat="42.80785581367927" lon="12.562145954895067"><ele>975.4285714285713</ele><time>2026-04-25T11:16:15Z</time></trkpt><trkpt lat="42.80778813548211" lon="12.562132494989012"><ele>975.7142857142856</ele><time>2026-04-25T11:16:21Z</time></trkpt><trkpt lat="42.80771620431325" lon="12.562126298402553"><ele>975.9999999999999</ele><time>2026-04-25T11:16:27Z</time></trkpt><trkpt lat="42.80764958215548" lon="12.56212080256376"><ele>975.9999999999999</ele><time>2026-04-25T11:16:33Z</time></trkpt><trkpt lat="42.807582316648784" lon="12.562117274296675"><ele>976.0</ele><time>2026-04-25T11:16:40Z</time></trkpt><trkpt lat="42.80752082307068" lon="12.562158199227005"><ele>975.9999999999999</ele><time>2026-04-25T11:16:47Z</time></trkpt><trkpt lat="42.80748724031524" lon="12.562234357171095"><ele>975.9999999999999</ele><time>2026-04-25T11:16:54Z</time></trkpt><trkpt lat="42.80747371980023" lon="12.56234009371578"><ele>976.0</ele><time>2026-04-25T11:17:00Z</time></trkpt><trkpt lat="42.807435151236874" lon="12.562418722802912"><ele>975.9999999999999</ele><time>2026-04-25T11:17:07Z</time></trkpt><trkpt lat="42.807414232208785" lon="12.562501365780893"><ele>975.9999999999999</ele><time>2026-04-25T11:17:14Z</time></trkpt><trkpt lat="42.807373743944964" lon="12.562578442181435"><ele>975.9999999999999</ele><time>2026-04-25T11:17:22Z</time></trkpt><trkpt lat="42.80735366812141" lon="12.562676971993284"><ele>976.0</ele><time>2026-04-25T11:17:30Z</time></trkpt><trkpt lat="42.8073253276688" lon="12.562761327944454"><ele>975.9999999999999</ele><time>2026-04-25T11:17:36Z</time></trkpt><trkpt lat="42.80728596899644" lon="12.562831698271737"><ele>975.9999999999999</ele><time>2026-04-25T11:17:46Z</time></trkpt><trkpt lat="42.80726186828667" lon="12.562913192419387"><ele>976.0</ele><time>2026-04-25T11:17:55Z</time></trkpt><trkpt lat="42.80723861548987" lon="12.562997040779777"><ele>975.9999999999999</ele><time>2026-04-25T11:18:03Z</time></trkpt><trkpt lat="42.807225405696684" lon="12.563082778971596"><ele>975.9999999999999</ele><time>2026-04-25T11:18:11Z</time></trkpt><trkpt lat="42.80721386162879" lon="12.563172829361768"><ele>976.8571428571427</ele><time>2026-04-25T11:18:23Z</time></trkpt><trkpt lat="42.80719103302405" lon="12.56325778134731"><ele>977.7142857142857</ele><time>2026-04-25T11:18:37Z</time></trkpt><trkpt lat="42.807165528049396" lon="12.5633374307791"><ele>978.5714285714284</ele><time>2026-04-25T11:18:46Z</time></trkpt><trkpt lat="42.807137288900975" lon="12.56341616072643"><ele>979.4285714285713</ele><time>2026-04-25T11:18:56Z</time></trkpt><trkpt lat="42.807095097591784" lon="12.563482232665855"><ele>980.2857142857142</ele><time>2026-04-25T11:19:08Z</time></trkpt><trkpt lat="42.80705872913881" lon="12.563578247334497"><ele>981.1428571428571</ele><time>2026-04-25T11:19:21Z</time></trkpt><trkpt lat="42.80702693853488" lon="12.56365858944125"><ele>982.0</ele><time>2026-04-25T11:19:51Z</time></trkpt><trkpt lat="42.80706416043929" lon="12.56373233737715"><ele>983.7142857142857</ele><time>2026-04-25T11:20:02Z</time></trkpt><trkpt lat="42.80709675998775" lon="12.563821142289683"><ele>985.4285714285713</ele><time>2026-04-25T11:20:13Z</time></trkpt><trkpt lat="42.80712090302747" lon="12.563901877069837"><ele>987.1428571428571</ele><time>2026-04-25T11:20:21Z</time></trkpt><trkpt lat="42.807161820433336" lon="12.563977522058995"><ele>988.8571428571429</ele><time>2026-04-25T11:20:31Z</time></trkpt><trkpt lat="42.8071849686763" lon="12.564061326405504"><ele>990.5714285714286</ele><time>2026-04-25T11:20:40Z</time></trkpt><trkpt lat="42.807212810070816" lon="12.564149115349135"><ele>992.2857142857142</ele><time>2026-04-25T11:20:48Z</time></trkpt><trkpt lat="42.8072495781131" lon="12.564228171965537"><ele>994.0</ele><time>2026-04-25T11:20:57Z</time></trkpt><trkpt lat="42.80728354452952" lon="12.564304966321835"><ele>994.0</ele><time>2026-04-25T11:21:04Z</time></trkpt><trkpt lat="42.80730762967842" lon="12.564390667241787"><ele>994.0</ele><time>2026-04-25T11:21:13Z</time></trkpt><trkpt lat="42.80732233818098" lon="12.56448225590833"><ele>994.0</ele><time>2026-04-25T11:21:21Z</time></trkpt><trkpt lat="42.80736376682153" lon="12.564549582267905"><ele>994.0</ele><time>2026-04-25T11:21:28Z</time></trkpt><trkpt lat="42.80740057737014" lon="12.564628726190785"><ele>994.0</ele><time>2026-04-25T11:21:35Z</time></trkpt><trkpt lat="42.80743309020223" lon="12.564710244252034"><ele>994.0</ele><time>2026-04-25T11:21:42Z</time></trkpt><trkpt lat="42.807456356853216" lon="12.564790393306561"><ele>994.0</ele><time>2026-04-25T11:21:49Z</time></trkpt><trkpt lat="42.80747162239391" lon="12.564880897955115"><ele>993.4285714285714</ele><time>2026-04-25T11:22:01Z</time></trkpt><trkpt lat="42.80748058182863" lon="12.564976437418515"><ele>992.8571428571429</ele><time>2026-04-25T11:22:07Z</time></trkpt><trkpt lat="42.807517472630614" lon="12.565065973665162"><ele>992.2857142857142</ele><time>2026-04-25T11:22:15Z</time></trkpt><trkpt lat="42.807554027792975" lon="12.565137799200054"><ele>991.7142857142857</ele><time>2026-04-25T11:22:52Z</time></trkpt><trkpt lat="42.80760060623503" lon="12.56520320914017"><ele>991.1428571428571</ele><time>2026-04-25T11:22:58Z</time></trkpt><trkpt lat="42.80765233191604" lon="12.565260591412846"><ele>990.5714285714284</ele><time>2026-04-25T11:23:06Z</time></trkpt><trkpt lat="42.80770128545572" lon="12.56532429939708"><ele>989.9999999999999</ele><time>2026-04-25T11:23:12Z</time></trkpt><trkpt lat="42.80773510741347" lon="12.56542126804115"><ele>989.9999999999999</ele><time>2026-04-25T11:23:19Z</time></trkpt><trkpt lat="42.807769725231076" lon="12.565500035559648"><ele>990.0</ele><time>2026-04-25T11:23:24Z</time></trkpt><trkpt lat="42.80781806628118" lon="12.565569570245007"><ele>989.9999999999999</ele><time>2026-04-25T11:23:30Z</time></trkpt><trkpt lat="42.807853119883866" lon="12.565663563757008"><ele>989.9999999999999</ele><time>2026-04-25T11:23:36Z</time></trkpt><trkpt lat="42.80789551385461" lon="12.565745964439914"><ele>990.0</ele><time>2026-04-25T11:23:42Z</time></trkpt><trkpt lat="42.807927250708396" lon="12.565828608893675"><ele>989.9999999999999</ele><time>2026-04-25T11:23:48Z</time></trkpt><trkpt lat="42.807954352448974" lon="12.565918564787548"><ele>989.9999999999999</ele><time>2026-04-25T11:23:54Z</time></trkpt><trkpt lat="42.80798813285743" lon="12.566004433345315"><ele>989.9999999999999</ele><time>2026-04-25T11:24:00Z</time></trkpt><trkpt lat="42.80801183258101" lon="12.56609106634061"><ele>990.0</ele><time>2026-04-25T11:24:06Z</time></trkpt><trkpt lat="42.808034838034445" lon="12.566172067854463"><ele>989.9999999999999</ele><time>2026-04-25T11:24:11Z</time></trkpt><trkpt lat="42.808049758607346" lon="12.566255923091637"><ele>989.9999999999999</ele><time>2026-04-25T11:24:19Z</time></trkpt><trkpt lat="42.80805879122565" lon="12.566345757940201"><ele>990.0</ele><time>2026-04-25T11:24:26Z</time></trkpt><trkpt lat="42.8080161111555" lon="12.566422112154962"><ele>989.9999999999999</ele><time>2026-04-25T11:24:32Z</time></trkpt><trkpt lat="42.807998449862914" lon="12.566507529653487"><ele>989.9999999999999</ele><time>2026-04-25T11:24:38Z</time></trkpt><trkpt lat="42.807960532483364" lon="12.566587583430671"><ele>990.4285714285713</ele><time>2026-04-25T11:24:45Z</time></trkpt><trkpt lat="42.80792287558395" lon="12.566661172499991"><ele>990.8571428571429</ele><time>2026-04-25T11:24:52Z</time></trkpt><trkpt lat="42.80787798304408" lon="12.566727168096323"><ele>991.2857142857142</ele><time>2026-04-25T11:24:57Z</time></trkpt><trkpt lat="42.80780996628951" lon="12.566747322382916"><ele>991.7142857142857</ele><time>2026-04-25T11:25:03Z</time></trkpt><trkpt lat="42.80773041610478" lon="12.566752700275886"><ele>992.1428571428571</ele><time>2026-04-25T11:25:09Z</time></trkpt><trkpt lat="42.807668937763715" lon="12.566731042096858"><ele>992.5714285714286</ele><time>2026-04-25T11:25:16Z</time></trkpt><trkpt lat="42.807600873099084" lon="12.566717315984437"><ele>993.0</ele><time>2026-04-25T11:25:22Z</time></trkpt><trkpt lat="42.807522972389364" lon="12.56669885074991"><ele>994.7142857142857</ele><time>2026-04-25T11:25:29Z</time></trkpt><trkpt lat="42.807449072726335" lon="12.566694072256853"><ele>996.4285714285716</ele><time>2026-04-25T11:25:35Z</time></trkpt><trkpt lat="42.80738192485097" lon="12.566681562185256"><ele>998.1428571428572</ele><time>2026-04-25T11:25:42Z</time></trkpt><trkpt lat="42.807315312342304" lon="12.566668316870047"><ele>999.8571428571429</ele><time>2026-04-25T11:25:49Z</time></trkpt><trkpt lat="42.80724487582464" lon="12.566685244419036"><ele>1001.5714285714287</ele><time>2026-04-25T11:25:56Z</time></trkpt><trkpt lat="42.80718710651282" lon="12.566748055448992"><ele>1003.2857142857144</ele><time>2026-04-25T11:26:03Z</time></trkpt><trkpt lat="42.80719658029349" lon="12.566842242862933"><ele>1005.0000000000001</ele><time>2026-04-25T11:26:09Z</time></trkpt><trkpt lat="42.80716440144038" lon="12.566933607566458"><ele>1004.1428571428573</ele><time>2026-04-25T11:26:15Z</time></trkpt><trkpt lat="42.80715472262733" lon="12.56703032634259"><ele>1003.2857142857143</ele><time>2026-04-25T11:26:22Z</time></trkpt><trkpt lat="42.807136869250776" lon="12.567117681358951"><ele>1002.4285714285716</ele><time>2026-04-25T11:26:27Z</time></trkpt><trkpt lat="42.80710964199441" lon="12.567204947980665"><ele>1001.5714285714287</ele><time>2026-04-25T11:26:33Z</time></trkpt><trkpt lat="42.807090982282766" lon="12.567290740554231"><ele>1000.7142857142858</ele><time>2026-04-25T11:26:38Z</time></trkpt><trkpt lat="42.807082027103824" lon="12.56739217531517"><ele>999.8571428571429</ele><time>2026-04-25T11:26:45Z</time></trkpt><trkpt lat="42.807073292325754" lon="12.56748392223208"><ele>999.0</ele><time>2026-04-25T11:26:51Z</time></trkpt><trkpt lat="42.807057680968846" lon="12.567581127423903"><ele>999.0</ele><time>2026-04-25T11:26:57Z</time></trkpt><trkpt lat="42.80700346820654" lon="12.567652522886373"><ele>999.0000000000001</ele><time>2026-04-25T11:27:02Z</time></trkpt><trkpt lat="42.80697719795835" lon="12.567734007831774"><ele>999.0</ele><time>2026-04-25T11:27:06Z</time></trkpt><trkpt lat="42.806939718061415" lon="12.567819760119388"><ele>999.0</ele><time>2026-04-25T11:27:12Z</time></trkpt><trkpt lat="42.80690017469868" lon="12.567902416368971"><ele>999.0000000000001</ele><time>2026-04-25T11:27:18Z</time></trkpt><trkpt lat="42.8068492963256" lon="12.567971797599155"><ele>999.0</ele><time>2026-04-25T11:27:24Z</time></trkpt><trkpt lat="42.80680224162296" lon="12.568030148265423"><ele>999.0</ele><time>2026-04-25T11:27:29Z</time></trkpt><trkpt lat="42.806756029010934" lon="12.568089873983268"><ele>1001.1428571428572</ele><time>2026-04-25T11:27:34Z</time></trkpt><trkpt lat="42.80671243417476" lon="12.568160935567299"><ele>1003.2857142857144</ele><time>2026-04-25T11:27:39Z</time></trkpt><trkpt lat="42.80667650777498" lon="12.568247936475634"><ele>1005.4285714285714</ele><time>2026-04-25T11:27:44Z</time></trkpt><trkpt lat="42.806604292389395" lon="12.568297247085638"><ele>1007.5714285714287</ele><time>2026-04-25T11:27:51Z</time></trkpt><trkpt lat="42.806540356033324" lon="12.56834375621845"><ele>1009.7142857142858</ele><time>2026-04-25T11:27:56Z</time></trkpt><trkpt lat="42.80647719800268" lon="12.568365865018489"><ele>1011.8571428571429</ele><time>2026-04-25T11:28:01Z</time></trkpt><trkpt lat="42.80641412797067" lon="12.56838782868307"><ele>1014.0</ele><time>2026-04-25T11:28:05Z</time></trkpt><trkpt lat="42.80634611324618" lon="12.568402647537726"><ele>1014.0</ele><time>2026-04-25T11:28:11Z</time></trkpt><trkpt lat="42.80627657602883" lon="12.5684103034925"><ele>1014.0</ele><time>2026-04-25T11:28:16Z</time></trkpt><trkpt lat="42.806205641612316" lon="12.568422720445037"><ele>1014.0</ele><time>2026-04-25T11:28:22Z</time></trkpt><trkpt lat="42.80613133030693" lon="12.568398801526232"><ele>1014.0</ele><time>2026-04-25T11:28:28Z</time></trkpt><trkpt lat="42.806060045616185" lon="12.56838012336796"><ele>1014.0</ele><time>2026-04-25T11:28:34Z</time></trkpt><trkpt lat="42.80598637839556" lon="12.56837850633591"><ele>1014.0</ele><time>2026-04-25T11:28:39Z</time></trkpt><trkpt lat="42.80592176071178" lon="12.568337884396534"><ele>1014.0</ele><time>2026-04-25T11:28:45Z</time></trkpt><trkpt lat="42.80585970829435" lon="12.568312516554924"><ele>1014.8571428571429</ele><time>2026-04-25T11:28:49Z</time></trkpt><trkpt lat="42.80578540318919" lon="12.568284360962378"><ele>1015.7142857142858</ele><time>2026-04-25T11:28:54Z</time></trkpt><trkpt lat="42.80570902361483" lon="12.568246515485828"><ele>1016.5714285714287</ele><time>2026-04-25T11:29:00Z</time></trkpt><trkpt lat="42.80564789089938" lon="12.568222088307186"><ele>1017.4285714285714</ele><time>2026-04-25T11:29:05Z</time></trkpt><trkpt lat="42.80557091808866" lon="12.568200797591361"><ele>1018.2857142857144</ele><time>2026-04-25T11:29:11Z</time></trkpt><trkpt lat="42.80551105188692" lon="12.568165300726086"><ele>1019.1428571428572</ele><time>2026-04-25T11:29:17Z</time></trkpt><trkpt lat="42.805449724718464" lon="12.568137369694913"><ele>1020.0</ele><time>2026-04-25T11:29:23Z</time></trkpt><trkpt lat="42.80537897278279" lon="12.568140012998185"><ele>1020.0</ele><time>2026-04-25T11:29:30Z</time></trkpt><trkpt lat="42.805313492932235" lon="12.568127093985565"><ele>1020.0000000000001</ele><time>2026-04-25T11:29:36Z</time></trkpt><trkpt lat="42.80524249689493" lon="12.568115058868012"><ele>1020.0</ele><time>2026-04-25T11:29:41Z</time></trkpt><trkpt lat="42.80517472701694" lon="12.56811860583597"><ele>1020.0</ele><time>2026-04-25T11:29:46Z</time></trkpt><trkpt lat="42.80511049513973" lon="12.568105813712728"><ele>1020.0000000000001</ele><time>2026-04-25T11:29:51Z</time></trkpt><trkpt lat="42.80504560800075" lon="12.568099232820032"><ele>1020.0</ele><time>2026-04-25T11:29:57Z</time></trkpt><trkpt lat="42.80497117181962" lon="12.568087668337052"><ele>1020.0</ele><time>2026-04-25T11:30:03Z</time></trkpt><trkpt lat="42.80490165369126" lon="12.568072375695825"><ele>1020.1428571428572</ele><time>2026-04-25T11:30:08Z</time></trkpt><trkpt lat="42.80483732842655" lon="12.568074025622336"><ele>1020.2857142857144</ele><time>2026-04-25T11:30:14Z</time></trkpt><trkpt lat="42.804775726192254" lon="12.568052183115595"><ele>1020.4285714285714</ele><time>2026-04-25T11:30:20Z</time></trkpt><trkpt lat="42.80469715210989" lon="12.568042228113054"><ele>1020.5714285714287</ele><time>2026-04-25T11:30:26Z</time></trkpt><trkpt lat="42.80462827554654" lon="12.568027252606408"><ele>1020.7142857142858</ele><time>2026-04-25T11:30:30Z</time></trkpt><trkpt lat="42.80454720171823" lon="12.568023018264627"><ele>1020.8571428571429</ele><time>2026-04-25T11:30:36Z</time></trkpt><trkpt lat="42.80447696648325" lon="12.568005919571712"><ele>1021.0</ele><time>2026-04-25T11:30:44Z</time></trkpt><trkpt lat="42.804407889740894" lon="12.568002407768594"><ele>1021.0</ele><time>2026-04-25T11:30:48Z</time></trkpt><trkpt lat="42.804335365777824" lon="12.568007748437136"><ele>1021.0</ele><time>2026-04-25T11:30:54Z</time></trkpt><trkpt lat="42.804266042701705" lon="12.567993190632258"><ele>1021.0</ele><time>2026-04-25T11:30:59Z</time></trkpt><trkpt lat="42.804190306128504" lon="12.567996263310482"><ele>1021.0</ele><time>2026-04-25T11:31:05Z</time></trkpt><trkpt lat="42.804115142858265" lon="12.567991744267736"><ele>1021.0</ele><time>2026-04-25T11:31:11Z</time></trkpt><trkpt lat="42.80404103859284" lon="12.567993865114845"><ele>1021.0</ele><time>2026-04-25T11:31:17Z</time></trkpt><trkpt lat="42.80396664449122" lon="12.567976493570438"><ele>1021.0</ele><time>2026-04-25T11:31:22Z</time></trkpt><trkpt lat="42.803899538480614" lon="12.56796579659763"><ele>1021.7142857142857</ele><time>2026-04-25T11:31:28Z</time></trkpt><trkpt lat="42.80383353601546" lon="12.567963955447105"><ele>1022.4285714285716</ele><time>2026-04-25T11:31:33Z</time></trkpt><trkpt lat="42.80376768358676" lon="12.567943782850852"><ele>1023.1428571428572</ele><time>2026-04-25T11:31:38Z</time></trkpt><trkpt lat="42.80369650559135" lon="12.567936410870022"><ele>1023.8571428571429</ele><time>2026-04-25T11:31:44Z</time></trkpt><trkpt lat="42.803626326311345" lon="12.567931511131508"><ele>1024.5714285714287</ele><time>2026-04-25T11:31:50Z</time></trkpt><trkpt lat="42.80356227478074" lon="12.567924785686342"><ele>1025.2857142857144</ele><time>2026-04-25T11:31:57Z</time></trkpt><trkpt lat="42.803487319659084" lon="12.56792435349439"><ele>1026.0</ele><time>2026-04-25T11:32:01Z</time></trkpt><trkpt lat="42.803499309718354" lon="12.568012930917048"><ele>1026.0000000000002</ele><time>2026-04-25T11:32:12Z</time></trkpt><trkpt lat="42.803544831664176" lon="12.56809507882536"><ele>1026.0</ele><time>2026-04-25T11:32:20Z</time></trkpt><trkpt lat="42.80358284049417" lon="12.56818582284694"><ele>1026.0</ele><time>2026-04-25T11:32:27Z</time></trkpt><trkpt lat="42.8036411727479" lon="12.568248423785754"><ele>1026.0</ele><time>2026-04-25T11:32:35Z</time></trkpt><trkpt lat="42.80366500619378" lon="12.568334570953992"><ele>1026.0</ele><time>2026-04-25T11:32:41Z</time></trkpt><trkpt lat="42.80368870343617" lon="12.568417280613431"><ele>1026.0000000000002</ele><time>2026-04-25T11:32:47Z</time></trkpt><trkpt lat="42.80369558273562" lon="12.56850830800992"><ele>1026.0</ele><time>2026-04-25T11:32:54Z</time></trkpt><trkpt lat="42.80371207654949" lon="12.568600214013479"><ele>1026.0000000000002</ele><time>2026-04-25T11:33:01Z</time></trkpt><trkpt lat="42.80373612872975" lon="12.568680961250514"><ele>1026.0</ele><time>2026-04-25T11:33:06Z</time></trkpt><trkpt lat="42.80376823871553" lon="12.568769273286795"><ele>1026.0</ele><time>2026-04-25T11:33:20Z</time></trkpt><trkpt lat="42.80378315842601" lon="12.568859135887127"><ele>1026.0</ele><time>2026-04-25T11:33:25Z</time></trkpt><trkpt lat="42.803763137090215" lon="12.568943052846082"><ele>1026.0</ele><time>2026-04-25T11:33:32Z</time></trkpt><trkpt lat="42.80374326968956" lon="12.568860784578094"><ele>1026.0000000000002</ele><time>2026-04-25T11:35:59Z</time></trkpt><trkpt lat="42.803709812101445" lon="12.568776349745974"><ele>1026.0</ele><time>2026-04-25T11:36:05Z</time></trkpt><trkpt lat="42.80371752166865" lon="12.568683008232163"><ele>1026.0</ele><time>2026-04-25T11:36:27Z</time></trkpt></trkseg></trk></gpx>